Terminal Aerodrome Forecast
Issued by NWS

Home | Current Version | Previous Version | Text Only | Print | Product List | Glossary Off
Versions: 1 2 3 4 5 6 7 8 9 10 11 12 13 14 15 16 17 18 19

149
FTUS41 KCLE 210523
TAFFDY
TAF
KFDY 210523Z 2106/2206 23014KT P6SM BKN080
     FM210800 21015G25KT 6SM -SHRA BKN035 OVC050
     FM211100 29014KT 3SM -SHRA BR OVC008
     FM211600 32010KT 6SM -SHRA OVC015
     FM220000 04009KT P6SM VCSH OVC025=

USA.gov is the U.S. government's official web portal to all federal, state and local government web resources and services.